sensor_id;sensor_type;location;lat;lon;timestamp;P1;durP1;ratioP1;P2;durP2;ratioP2
2257;SDS011;1136;51.574;7.706;2023-05-14T00:00:22;15.23;;;13.83;;
2257;SDS011;1136;51.574;7.706;2023-05-14T00:02:49;14.97;;;13.67;;
2257;SDS011;1136;51.574;7.706;2023-05-14T00:05:17;14.93;;;13.73;;
2257;SDS011;1136;51.574;7.706;2023-05-14T00:07:43;14.47;;;13.27;;
2257;SDS011;1136;51.574;7.706;2023-05-14T00:10:09;13.70;;;12.60;;
2257;SDS011;1136;51.574;7.706;2023-05-14T00:12:36;14.23;;;12.83;;
2257;SDS011;1136;51.574;7.706;2023-05-14T00:15:03;14.23;;;13.00;;
2257;SDS011;1136;51.574;7.706;2023-05-14T00:17:31;13.40;;;12.40;;
2257;SDS011;1136;51.574;7.706;2023-05-14T00:19:57;15.07;;;13.80;;
2257;SDS011;1136;51.574;7.706;2023-05-14T00:22:24;14.87;;;13.70;;
2257;SDS011;1136;51.574;7.706;2023-05-14T00:24:51;14.03;;;12.93;;
2257;SDS011;1136;51.574;7.706;2023-05-14T00:27:18;12.97;;;11.77;;
2257;SDS011;1136;51.574;7.706;2023-05-14T00:29:44;14.20;;;13.10;;
2257;SDS011;1136;51.574;7.706;2023-05-14T00:32:11;14.50;;;13.30;;
2257;SDS011;1136;51.574;7.706;2023-05-14T00:34:38;16.63;;;15.17;;
2257;SDS011;1136;51.574;7.706;2023-05-14T00:37:04;14.27;;;13.10;;
2257;SDS011;1136;51.574;7.706;2023-05-14T00:39:31;13.17;;;11.87;;
2257;SDS011;1136;51.574;7.706;2023-05-14T00:41:59;14.40;;;12.87;;
2257;SDS011;1136;51.574;7.706;2023-05-14T00:44:26;14.63;;;13.43;;
2257;SDS011;1136;51.574;7.706;2023-05-14T00:46:52;13.83;;;12.73;;
2257;SDS011;1136;51.574;7.706;2023-05-14T00:49:20;16.70;;;14.10;;
2257;SDS011;1136;51.574;7.706;2023-05-14T00:51:46;14.07;;;12.97;;
2257;SDS011;1136;51.574;7.706;2023-05-14T00:54:13;14.63;;;13.43;;
2257;SDS011;1136;51.574;7.706;2023-05-14T00:56:45;14.60;;;13.33;;
2257;SDS011;1136;51.574;7.706;2023-05-14T00:59:12;15.03;;;13.37;;
2257;SDS011;1136;51.574;7.706;2023-05-14T01:01:39;13.00;;;12.00;;
2257;SDS011;1136;51.574;7.706;2023-05-14T01:04:06;13.23;;;12.03;;
2257;SDS011;1136;51.574;7.706;2023-05-14T01:09:49;14.40;;;13.20;;
2257;SDS011;1136;51.574;7.706;2023-05-14T01:12:26;14.63;;;12.87;;
2257;SDS011;1136;51.574;7.706;2023-05-14T01:17:32;15.43;;;13.93;;
2257;SDS011;1136;51.574;7.706;2023-05-14T01:20:02;14.80;;;13.50;;
2257;SDS011;1136;51.574;7.706;2023-05-14T01:22:29;15.47;;;14.00;;
2257;SDS011;1136;51.574;7.706;2023-05-14T01:24:56;15.03;;;13.27;;
2257;SDS011;1136;51.574;7.706;2023-05-14T01:30:20;14.47;;;12.97;;
2257;SDS011;1136;51.574;7.706;2023-05-14T01:32:50;13.57;;;12.47;;
2257;SDS011;1136;51.574;7.706;2023-05-14T01:35:19;14.50;;;13.30;;
2257;SDS011;1136;51.574;7.706;2023-05-14T01:37:46;14.20;;;12.97;;
2257;SDS011;1136;51.574;7.706;2023-05-14T01:40:14;14.47;;;13.17;;
2257;SDS011;1136;51.574;7.706;2023-05-14T01:42:41;15.37;;;14.03;;
2257;SDS011;1136;51.574;7.706;2023-05-14T01:45:08;15.47;;;14.17;;
2257;SDS011;1136;51.574;7.706;2023-05-14T01:47:35;15.30;;;13.90;;
2257;SDS011;1136;51.574;7.706;2023-05-14T01:50:02;16.87;;;15.40;;
2257;SDS011;1136;51.574;7.706;2023-05-14T01:52:29;16.90;;;15.40;;
2257;SDS011;1136;51.574;7.706;2023-05-14T01:54:55;15.90;;;14.63;;
2257;SDS011;1136;51.574;7.706;2023-05-14T01:57:23;15.93;;;14.53;;
2257;SDS011;1136;51.574;7.706;2023-05-14T01:59:50;16.37;;;14.70;;
2257;SDS011;1136;51.574;7.706;2023-05-14T02:02:17;15.83;;;14.40;;
2257;SDS011;1136;51.574;7.706;2023-05-14T02:04:43;16.40;;;14.90;;
2257;SDS011;1136;51.574;7.706;2023-05-14T02:07:11;15.40;;;14.10;;
2257;SDS011;1136;51.574;7.706;2023-05-14T02:09:37;14.80;;;13.40;;
2257;SDS011;1136;51.574;7.706;2023-05-14T02:12:05;16.53;;;15.23;;
2257;SDS011;1136;51.574;7.706;2023-05-14T02:14:33;16.90;;;15.50;;
2257;SDS011;1136;51.574;7.706;2023-05-14T02:16:59;15.97;;;14.77;;
2257;SDS011;1136;51.574;7.706;2023-05-14T02:19:26;21.57;;;15.27;;
2257;SDS011;1136;51.574;7.706;2023-05-14T02:21:53;16.80;;;15.40;;
2257;SDS011;1136;51.574;7.706;2023-05-14T02:24:19;14.83;;;13.53;;
2257;SDS011;1136;51.574;7.706;2023-05-14T02:26:46;16.90;;;15.30;;
2257;SDS011;1136;51.574;7.706;2023-05-14T02:29:13;16.70;;;15.17;;
2257;SDS011;1136;51.574;7.706;2023-05-14T02:31:39;17.40;;;15.80;;
2257;SDS011;1136;51.574;7.706;2023-05-14T02:34:06;18.03;;;16.23;;
2257;SDS011;1136;51.574;7.706;2023-05-14T02:36:33;16.50;;;15.20;;
2257;SDS011;1136;51.574;7.706;2023-05-14T02:38:59;18.63;;;16.13;;
2257;SDS011;1136;51.574;7.706;2023-05-14T02:41:26;17.67;;;15.93;;
2257;SDS011;1136;51.574;7.706;2023-05-14T02:43:52;17.80;;;16.07;;
2257;SDS011;1136;51.574;7.706;2023-05-14T02:46:19;18.20;;;16.63;;
2257;SDS011;1136;51.574;7.706;2023-05-14T02:48:46;16.63;;;15.27;;
2257;SDS011;1136;51.574;7.706;2023-05-14T02:51:13;18.50;;;16.17;;
2257;SDS011;1136;51.574;7.706;2023-05-14T02:53:40;16.90;;;15.40;;
2257;SDS011;1136;51.574;7.706;2023-05-14T02:56:06;17.47;;;15.93;;
2257;SDS011;1136;51.574;7.706;2023-05-14T02:58:33;17.60;;;16.00;;
2257;SDS011;1136;51.574;7.706;2023-05-14T03:01:00;17.47;;;15.73;;
2257;SDS011;1136;51.574;7.706;2023-05-14T03:03:28;17.40;;;15.87;;
2257;SDS011;1136;51.574;7.706;2023-05-14T03:05:55;17.20;;;15.50;;
2257;SDS011;1136;51.574;7.706;2023-05-14T03:08:22;16.50;;;15.07;;
2257;SDS011;1136;51.574;7.706;2023-05-14T03:10:49;17.83;;;16.43;;
2257;SDS011;1136;51.574;7.706;2023-05-14T03:13:16;16.83;;;15.30;;
2257;SDS011;1136;51.574;7.706;2023-05-14T03:15:45;16.63;;;15.13;;
2257;SDS011;1136;51.574;7.706;2023-05-14T03:18:12;17.83;;;16.23;;
2257;SDS011;1136;51.574;7.706;2023-05-14T03:20:40;17.43;;;15.60;;
2257;SDS011;1136;51.574;7.706;2023-05-14T03:23:07;17.60;;;15.17;;
2257;SDS011;1136;51.574;7.706;2023-05-14T03:25:33;18.23;;;16.73;;
2257;SDS011;1136;51.574;7.706;2023-05-14T03:28:02;16.93;;;15.43;;
2257;SDS011;1136;51.574;7.706;2023-05-14T03:30:28;17.03;;;15.53;;
2257;SDS011;1136;51.574;7.706;2023-05-14T03:32:55;16.27;;;14.97;;
2257;SDS011;1136;51.574;7.706;2023-05-14T03:35:22;17.33;;;15.40;;
2257;SDS011;1136;51.574;7.706;2023-05-14T03:37:48;17.80;;;15.80;;
2257;SDS011;1136;51.574;7.706;2023-05-14T03:40:16;17.50;;;16.00;;
2257;SDS011;1136;51.574;7.706;2023-05-14T03:42:43;17.77;;;16.27;;
2257;SDS011;1136;51.574;7.706;2023-05-14T03:45:09;17.00;;;15.63;;
2257;SDS011;1136;51.574;7.706;2023-05-14T03:47:36;16.50;;;15.00;;
2257;SDS011;1136;51.574;7.706;2023-05-14T03:50:03;18.17;;;15.13;;
2257;SDS011;1136;51.574;7.706;2023-05-14T03:52:29;15.50;;;14.10;;
2257;SDS011;1136;51.574;7.706;2023-05-14T03:54:56;15.03;;;13.80;;
2257;SDS011;1136;51.574;7.706;2023-05-14T03:57:23;16.27;;;14.77;;
2257;SDS011;1136;51.574;7.706;2023-05-14T03:59:49;15.70;;;14.20;;
2257;SDS011;1136;51.574;7.706;2023-05-14T04:02:16;16.60;;;15.10;;
2257;SDS011;1136;51.574;7.706;2023-05-14T04:04:43;15.67;;;14.27;;
2257;SDS011;1136;51.574;7.706;2023-05-14T04:07:10;16.47;;;14.93;;
2257;SDS011;1136;51.574;7.706;2023-05-14T04:09:36;14.80;;;13.70;;
2257;SDS011;1136;51.574;7.706;2023-05-14T04:12:03;16.13;;;14.73;;
2257;SDS011;1136;51.574;7.706;2023-05-14T04:14:30;15.90;;;14.47;;
2257;SDS011;1136;51.574;7.706;2023-05-14T04:16:57;16.23;;;14.83;;
2257;SDS011;1136;51.574;7.706;2023-05-14T04:19:25;16.60;;;15.20;;
2257;SDS011;1136;51.574;7.706;2023-05-14T04:21:52;16.27;;;14.20;;
2257;SDS011;1136;51.574;7.706;2023-05-14T04:24:19;15.67;;;14.27;;
2257;SDS011;1136;51.574;7.706;2023-05-14T04:26:45;16.00;;;14.50;;
2257;SDS011;1136;51.574;7.706;2023-05-14T04:29:12;15.63;;;14.13;;
2257;SDS011;1136;51.574;7.706;2023-05-14T04:31:38;15.67;;;14.37;;
2257;SDS011;1136;51.574;7.706;2023-05-14T04:34:05;15.30;;;13.80;;
2257;SDS011;1136;51.574;7.706;2023-05-14T04:36:32;16.33;;;14.87;;
2257;SDS011;1136;51.574;7.706;2023-05-14T04:38:58;16.83;;;15.33;;
2257;SDS011;1136;51.574;7.706;2023-05-14T04:41:25;14.73;;;13.40;;
2257;SDS011;1136;51.574;7.706;2023-05-14T04:43:54;15.53;;;14.10;;
2257;SDS011;1136;51.574;7.706;2023-05-14T04:46:21;15.63;;;14.13;;
2257;SDS011;1136;51.574;7.706;2023-05-14T04:48:47;14.77;;;13.67;;
2257;SDS011;1136;51.574;7.706;2023-05-14T04:51:14;15.43;;;14.00;;
2257;SDS011;1136;51.574;7.706;2023-05-14T04:53:41;15.53;;;14.30;;
2257;SDS011;1136;51.574;7.706;2023-05-14T04:56:08;14.77;;;13.53;;
2257;SDS011;1136;51.574;7.706;2023-05-14T04:58:35;15.70;;;13.90;;
2257;SDS011;1136;51.574;7.706;2023-05-14T05:01:03;16.17;;;14.70;;
2257;SDS011;1136;51.574;7.706;2023-05-14T05:03:30;16.33;;;14.73;;
2257;SDS011;1136;51.574;7.706;2023-05-14T05:05:57;16.13;;;14.73;;
2257;SDS011;1136;51.574;7.706;2023-05-14T05:08:24;16.10;;;14.43;;
2257;SDS011;1136;51.574;7.706;2023-05-14T05:10:51;15.97;;;14.57;;
2257;SDS011;1136;51.574;7.706;2023-05-14T05:13:18;14.70;;;13.40;;
2257;SDS011;1136;51.574;7.706;2023-05-14T05:15:45;16.27;;;14.33;;
2257;SDS011;1136;51.574;7.706;2023-05-14T05:18:11;17.03;;;15.20;;
2257;SDS011;1136;51.574;7.706;2023-05-14T05:20:38;14.70;;;13.30;;
2257;SDS011;1136;51.574;7.706;2023-05-14T05:23:05;13.33;;;12.13;;
2257;SDS011;1136;51.574;7.706;2023-05-14T05:25:32;15.03;;;13.17;;
2257;SDS011;1136;51.574;7.706;2023-05-14T05:27:58;13.60;;;12.40;;
2257;SDS011;1136;51.574;7.706;2023-05-14T05:30:25;14.77;;;13.23;;
2257;SDS011;1136;51.574;7.706;2023-05-14T05:32:52;12.83;;;11.40;;
2257;SDS011;1136;51.574;7.706;2023-05-14T05:35:19;17.57;;;11.57;;
2257;SDS011;1136;51.574;7.706;2023-05-14T05:37:45;13.10;;;11.90;;
2257;SDS011;1136;51.574;7.706;2023-05-14T05:40:12;12.47;;;11.23;;
2257;SDS011;1136;51.574;7.706;2023-05-14T05:42:39;12.17;;;11.17;;
2257;SDS011;1136;51.574;7.706;2023-05-14T05:45:07;12.63;;;11.43;;
2257;SDS011;1136;51.574;7.706;2023-05-14T05:47:34;13.13;;;11.93;;
2257;SDS011;1136;51.574;7.706;2023-05-14T05:50:00;15.60;;;11.50;;
2257;SDS011;1136;51.574;7.706;2023-05-14T05:52:27;13.27;;;12.13;;
2257;SDS011;1136;51.574;7.706;2023-05-14T05:54:54;11.47;;;10.57;;
2257;SDS011;1136;51.574;7.706;2023-05-14T05:57:20;13.10;;;12.03;;
2257;SDS011;1136;51.574;7.706;2023-05-14T05:59:51;12.23;;;11.20;;
2257;SDS011;1136;51.574;7.706;2023-05-14T06:02:18;10.80;;;9.77;;
2257;SDS011;1136;51.574;7.706;2023-05-14T06:04:45;11.17;;;10.17;;
2257;SDS011;1136;51.574;7.706;2023-05-14T06:07:12;11.63;;;10.63;;
2257;SDS011;1136;51.574;7.706;2023-05-14T06:09:38;12.80;;;11.70;;
2257;SDS011;1136;51.574;7.706;2023-05-14T06:12:05;11.43;;;10.43;;
2257;SDS011;1136;51.574;7.706;2023-05-14T06:14:32;11.50;;;10.60;;
2257;SDS011;1136;51.574;7.706;2023-05-14T06:16:59;10.97;;;10.10;;
2257;SDS011;1136;51.574;7.706;2023-05-14T06:19:26;11.47;;;10.57;;
2257;SDS011;1136;51.574;7.706;2023-05-14T06:21:53;12.20;;;11.20;;
2257;SDS011;1136;51.574;7.706;2023-05-14T06:24:19;11.93;;;9.63;;
2257;SDS011;1136;51.574;7.706;2023-05-14T06:26:46;11.80;;;10.00;;
2257;SDS011;1136;51.574;7.706;2023-05-14T06:29:14;10.57;;;9.77;;
2257;SDS011;1136;51.574;7.706;2023-05-14T06:31:41;9.13;;;8.50;;
2257;SDS011;1136;51.574;7.706;2023-05-14T06:34:08;10.73;;;9.93;;
2257;SDS011;1136;51.574;7.706;2023-05-14T06:36:34;11.63;;;10.50;;
2257;SDS011;1136;51.574;7.706;2023-05-14T06:39:01;11.37;;;10.30;;
2257;SDS011;1136;51.574;7.706;2023-05-14T06:41:28;11.23;;;10.20;;
2257;SDS011;1136;51.574;7.706;2023-05-14T06:43:55;11.87;;;10.10;;
2257;SDS011;1136;51.574;7.706;2023-05-14T06:46:22;11.63;;;9.63;;
2257;SDS011;1136;51.574;7.706;2023-05-14T06:48:49;10.67;;;9.33;;
2257;SDS011;1136;51.574;7.706;2023-05-14T06:51:15;9.00;;;8.23;;
2257;SDS011;1136;51.574;7.706;2023-05-14T06:53:42;9.53;;;8.53;;
2257;SDS011;1136;51.574;7.706;2023-05-14T06:56:09;9.83;;;8.90;;
2257;SDS011;1136;51.574;7.706;2023-05-14T06:58:36;8.90;;;8.30;;
2257;SDS011;1136;51.574;7.706;2023-05-14T07:01:02;9.20;;;8.60;;
2257;SDS011;1136;51.574;7.706;2023-05-14T07:03:30;9.17;;;8.17;;
2257;SDS011;1136;51.574;7.706;2023-05-14T07:05:56;9.30;;;8.50;;
2257;SDS011;1136;51.574;7.706;2023-05-14T07:08:23;10.17;;;9.37;;
2257;SDS011;1136;51.574;7.706;2023-05-14T07:10:51;9.67;;;8.70;;
2257;SDS011;1136;51.574;7.706;2023-05-14T07:13:17;9.23;;;8.40;;
2257;SDS011;1136;51.574;7.706;2023-05-14T07:15:44;10.23;;;9.37;;
2257;SDS011;1136;51.574;7.706;2023-05-14T07:18:11;8.87;;;8.07;;
2257;SDS011;1136;51.574;7.706;2023-05-14T07:20:37;10.13;;;9.00;;
2257;SDS011;1136;51.574;7.706;2023-05-14T07:23:04;8.90;;;8.03;;
2257;SDS011;1136;51.574;7.706;2023-05-14T07:25:31;9.07;;;8.27;;
2257;SDS011;1136;51.574;7.706;2023-05-14T07:27:57;9.47;;;8.57;;
2257;SDS011;1136;51.574;7.706;2023-05-14T07:30:24;9.70;;;7.60;;
2257;SDS011;1136;51.574;7.706;2023-05-14T07:32:51;10.63;;;9.60;;
2257;SDS011;1136;51.574;7.706;2023-05-14T07:35:18;8.83;;;7.93;;
2257;SDS011;1136;51.574;7.706;2023-05-14T07:37:45;9.00;;;8.40;;
2257;SDS011;1136;51.574;7.706;2023-05-14T07:40:12;9.27;;;8.57;;
2257;SDS011;1136;51.574;7.706;2023-05-14T07:42:38;9.03;;;8.20;;
2257;SDS011;1136;51.574;7.706;2023-05-14T07:45:06;8.90;;;8.20;;
2257;SDS011;1136;51.574;7.706;2023-05-14T07:47:33;11.40;;;10.40;;
2257;SDS011;1136;51.574;7.706;2023-05-14T07:50:01;9.20;;;8.50;;
2257;SDS011;1136;51.574;7.706;2023-05-14T07:52:27;7.40;;;7.00;;
2257;SDS011;1136;51.574;7.706;2023-05-14T07:54:54;8.87;;;8.07;;
2257;SDS011;1136;51.574;7.706;2023-05-14T07:57:21;8.13;;;7.40;;
2257;SDS011;1136;51.574;7.706;2023-05-14T07:59:48;6.93;;;6.40;;
2257;SDS011;1136;51.574;7.706;2023-05-14T08:02:14;7.67;;;6.97;;
2257;SDS011;1136;51.574;7.706;2023-05-14T08:04:43;6.70;;;6.20;;
2257;SDS011;1136;51.574;7.706;2023-05-14T08:07:10;6.70;;;6.20;;
2257;SDS011;1136;51.574;7.706;2023-05-14T08:09:37;9.00;;;6.13;;
2257;SDS011;1136;51.574;7.706;2023-05-14T08:12:05;7.60;;;7.00;;
2257;SDS011;1136;51.574;7.706;2023-05-14T08:14:32;7.43;;;6.60;;
2257;SDS011;1136;51.574;7.706;2023-05-14T08:16:59;6.67;;;6.07;;
2257;SDS011;1136;51.574;7.706;2023-05-14T08:19:26;6.57;;;5.97;;
2257;SDS011;1136;51.574;7.706;2023-05-14T08:21:53;8.03;;;5.70;;
2257;SDS011;1136;51.574;7.706;2023-05-14T08:24:20;6.93;;;6.43;;
2257;SDS011;1136;51.574;7.706;2023-05-14T08:26:46;7.10;;;6.60;;
2257;SDS011;1136;51.574;7.706;2023-05-14T08:29:13;8.27;;;7.60;;
2257;SDS011;1136;51.574;7.706;2023-05-14T08:31:42;6.67;;;6.17;;
2257;SDS011;1136;51.574;7.706;2023-05-14T08:34:09;7.23;;;6.73;;
2257;SDS011;1136;51.574;7.706;2023-05-14T08:36:37;6.00;;;5.60;;
2257;SDS011;1136;51.574;7.706;2023-05-14T08:39:04;7.13;;;6.53;;
2257;SDS011;1136;51.574;7.706;2023-05-14T08:41:32;6.63;;;6.23;;
2257;SDS011;1136;51.574;7.706;2023-05-14T08:44:19;6.50;;;6.00;;
2257;SDS011;1136;51.574;7.706;2023-05-14T08:46:47;6.77;;;6.27;;
2257;SDS011;1136;51.574;7.706;2023-05-14T08:52:01;6.63;;;6.03;;
2257;SDS011;1136;51.574;7.706;2023-05-14T08:54:28;6.00;;;5.50;;
2257;SDS011;1136;51.574;7.706;2023-05-14T08:56:58;6.20;;;5.80;;
2257;SDS011;1136;51.574;7.706;2023-05-14T08:59:24;5.83;;;5.43;;
2257;SDS011;1136;51.574;7.706;2023-05-14T09:01:52;6.90;;;6.40;;
2257;SDS011;1136;51.574;7.706;2023-05-14T09:04:21;5.80;;;5.40;;
2257;SDS011;1136;51.574;7.706;2023-05-14T09:06:52;5.07;;;4.77;;
2257;SDS011;1136;51.574;7.706;2023-05-14T09:09:22;6.30;;;6.00;;
2257;SDS011;1136;51.574;7.706;2023-05-14T09:11:52;5.33;;;4.93;;
2257;SDS011;1136;51.574;7.706;2023-05-14T09:14:19;5.80;;;5.40;;
2257;SDS011;1136;51.574;7.706;2023-05-14T09:16:48;5.47;;;5.07;;
2257;SDS011;1136;51.574;7.706;2023-05-14T09:19:16;4.73;;;4.43;;
2257;SDS011;1136;51.574;7.706;2023-05-14T09:21:47;5.30;;;4.90;;
2257;SDS011;1136;51.574;7.706;2023-05-14T09:24:21;5.50;;;5.00;;
2257;SDS011;1136;51.574;7.706;2023-05-14T09:26:52;4.80;;;4.53;;
2257;SDS011;1136;51.574;7.706;2023-05-14T09:29:19;3.70;;;3.50;;
2257;SDS011;1136;51.574;7.706;2023-05-14T09:31:46;5.20;;;4.90;;
2257;SDS011;1136;51.574;7.706;2023-05-14T09:34:22;3.97;;;3.80;;
2257;SDS011;1136;51.574;7.706;2023-05-14T09:36:49;3.70;;;3.60;;
2257;SDS011;1136;51.574;7.706;2023-05-14T09:39:21;3.90;;;3.80;;
2257;SDS011;1136;51.574;7.706;2023-05-14T09:41:49;3.23;;;3.10;;
2257;SDS011;1136;51.574;7.706;2023-05-14T09:44:17;3.13;;;2.93;;
2257;SDS011;1136;51.574;7.706;2023-05-14T09:46:45;4.20;;;4.00;;
2257;SDS011;1136;51.574;7.706;2023-05-14T09:49:12;3.60;;;3.50;;
2257;SDS011;1136;51.574;7.706;2023-05-14T09:51:39;3.83;;;3.73;;
2257;SDS011;1136;51.574;7.706;2023-05-14T09:54:06;3.70;;;3.50;;
2257;SDS011;1136;51.574;7.706;2023-05-14T09:56:34;3.60;;;3.50;;
2257;SDS011;1136;51.574;7.706;2023-05-14T09:59:01;3.63;;;3.43;;
2257;SDS011;1136;51.574;7.706;2023-05-14T10:01:29;5.27;;;4.30;;
2257;SDS011;1136;51.574;7.706;2023-05-14T10:03:58;3.73;;;3.63;;
2257;SDS011;1136;51.574;7.706;2023-05-14T10:06:25;4.50;;;4.30;;
2257;SDS011;1136;51.574;7.706;2023-05-14T10:09:00;3.77;;;3.57;;
2257;SDS011;1136;51.574;7.706;2023-05-14T10:11:27;3.30;;;3.20;;
2257;SDS011;1136;51.574;7.706;2023-05-14T10:16:59;4.00;;;3.80;;
2257;SDS011;1136;51.574;7.706;2023-05-14T10:19:27;3.30;;;3.10;;
2257;SDS011;1136;51.574;7.706;2023-05-14T10:22:01;3.93;;;2.90;;
2257;SDS011;1136;51.574;7.706;2023-05-14T10:24:29;2.63;;;2.53;;
2257;SDS011;1136;51.574;7.706;2023-05-14T10:26:56;3.10;;;2.90;;
2257;SDS011;1136;51.574;7.706;2023-05-14T10:29:31;3.07;;;2.90;;
2257;SDS011;1136;51.574;7.706;2023-05-14T10:32:04;3.27;;;3.10;;
2257;SDS011;1136;51.574;7.706;2023-05-14T10:37:10;3.10;;;3.00;;
2257;SDS011;1136;51.574;7.706;2023-05-14T10:42:21;3.10;;;2.90;;
2257;SDS011;1136;51.574;7.706;2023-05-14T10:47:27;3.37;;;3.10;;
2257;SDS011;1136;51.574;7.706;2023-05-14T10:49:55;2.80;;;2.70;;
2257;SDS011;1136;51.574;7.706;2023-05-14T10:52:24;4.60;;;4.40;;
2257;SDS011;1136;51.574;7.706;2023-05-14T10:54:53;2.93;;;2.73;;
2257;SDS011;1136;51.574;7.706;2023-05-14T10:57:26;3.00;;;2.90;;
2257;SDS011;1136;51.574;7.706;2023-05-14T10:59:56;3.60;;;3.30;;
2257;SDS011;1136;51.574;7.706;2023-05-14T11:02:24;3.60;;;3.40;;
2257;SDS011;1136;51.574;7.706;2023-05-14T11:04:57;3.37;;;3.27;;
2257;SDS011;1136;51.574;7.706;2023-05-14T11:07:38;3.33;;;3.23;;
2257;SDS011;1136;51.574;7.706;2023-05-14T11:10:07;3.60;;;3.40;;
2257;SDS011;1136;51.574;7.706;2023-05-14T11:12:36;3.47;;;3.37;;
2257;SDS011;1136;51.574;7.706;2023-05-14T11:15:05;4.67;;;3.43;;
2257;SDS011;1136;51.574;7.706;2023-05-14T11:17:34;3.17;;;2.93;;
2257;SDS011;1136;51.574;7.706;2023-05-14T11:20:02;3.50;;;3.30;;
2257;SDS011;1136;51.574;7.706;2023-05-14T11:22:30;3.10;;;2.90;;
2257;SDS011;1136;51.574;7.706;2023-05-14T11:24:57;3.30;;;3.10;;
2257;SDS011;1136;51.574;7.706;2023-05-14T11:27:24;3.00;;;2.90;;
2257;SDS011;1136;51.574;7.706;2023-05-14T11:29:51;2.97;;;2.87;;
2257;SDS011;1136;51.574;7.706;2023-05-14T11:32:18;3.03;;;2.93;;
2257;SDS011;1136;51.574;7.706;2023-05-14T11:34:45;2.70;;;2.60;;
2257;SDS011;1136;51.574;7.706;2023-05-14T11:37:13;3.10;;;2.97;;
2257;SDS011;1136;51.574;7.706;2023-05-14T11:39:47;2.70;;;2.50;;
2257;SDS011;1136;51.574;7.706;2023-05-14T11:42:15;2.70;;;2.50;;
2257;SDS011;1136;51.574;7.706;2023-05-14T11:44:47;2.70;;;2.60;;
2257;SDS011;1136;51.574;7.706;2023-05-14T11:47:15;2.60;;;2.50;;
2257;SDS011;1136;51.574;7.706;2023-05-14T11:49:43;2.40;;;2.30;;
2257;SDS011;1136;51.574;7.706;2023-05-14T11:52:10;2.43;;;2.23;;
2257;SDS011;1136;51.574;7.706;2023-05-14T11:54:41;2.70;;;2.50;;
2257;SDS011;1136;51.574;7.706;2023-05-14T11:57:10;2.30;;;2.20;;
2257;SDS011;1136;51.574;7.706;2023-05-14T11:59:38;2.80;;;2.70;;
2257;SDS011;1136;51.574;7.706;2023-05-14T12:02:09;2.93;;;2.83;;
2257;SDS011;1136;51.574;7.706;2023-05-14T12:04:37;2.63;;;2.43;;
2257;SDS011;1136;51.574;7.706;2023-05-14T12:07:08;3.53;;;2.30;;
2257;SDS011;1136;51.574;7.706;2023-05-14T12:09:36;2.30;;;2.20;;
2257;SDS011;1136;51.574;7.706;2023-05-14T12:12:07;2.03;;;1.93;;
2257;SDS011;1136;51.574;7.706;2023-05-14T12:14:38;2.43;;;2.33;;
2257;SDS011;1136;51.574;7.706;2023-05-14T12:17:13;2.20;;;2.10;;
2257;SDS011;1136;51.574;7.706;2023-05-14T12:19:45;2.40;;;2.30;;
2257;SDS011;1136;51.574;7.706;2023-05-14T12:22:14;1.93;;;1.83;;
2257;SDS011;1136;51.574;7.706;2023-05-14T12:24:42;2.23;;;2.13;;
2257;SDS011;1136;51.574;7.706;2023-05-14T12:27:10;2.17;;;2.07;;
2257;SDS011;1136;51.574;7.706;2023-05-14T12:29:37;2.20;;;2.10;;
2257;SDS011;1136;51.574;7.706;2023-05-14T12:32:08;2.00;;;1.90;;
2257;SDS011;1136;51.574;7.706;2023-05-14T12:34:35;2.10;;;2.00;;
2257;SDS011;1136;51.574;7.706;2023-05-14T12:37:03;1.87;;;1.50;;
2257;SDS011;1136;51.574;7.706;2023-05-14T12:39:31;2.73;;;1.50;;
2257;SDS011;1136;51.574;7.706;2023-05-14T12:41:59;2.00;;;1.90;;
2257;SDS011;1136;51.574;7.706;2023-05-14T12:44:26;2.23;;;1.80;;
2257;SDS011;1136;51.574;7.706;2023-05-14T12:46:53;2.20;;;2.10;;
2257;SDS011;1136;51.574;7.706;2023-05-14T12:49:20;2.70;;;2.50;;
2257;SDS011;1136;51.574;7.706;2023-05-14T12:51:46;2.10;;;2.00;;
2257;SDS011;1136;51.574;7.706;2023-05-14T12:54:13;2.23;;;2.13;;
2257;SDS011;1136;51.574;7.706;2023-05-14T12:56:41;1.77;;;1.67;;
2257;SDS011;1136;51.574;7.706;2023-05-14T12:59:08;1.90;;;1.80;;
2257;SDS011;1136;51.574;7.706;2023-05-14T13:01:36;1.70;;;1.60;;
2257;SDS011;1136;51.574;7.706;2023-05-14T13:04:04;2.30;;;2.10;;
2257;SDS011;1136;51.574;7.706;2023-05-14T13:06:31;3.83;;;2.30;;
2257;SDS011;1136;51.574;7.706;2023-05-14T13:08:58;2.40;;;2.20;;
2257;SDS011;1136;51.574;7.706;2023-05-14T13:11:27;2.03;;;1.90;;
2257;SDS011;1136;51.574;7.706;2023-05-14T13:13:55;1.87;;;1.77;;
2257;SDS011;1136;51.574;7.706;2023-05-14T13:16:22;1.80;;;1.70;;
2257;SDS011;1136;51.574;7.706;2023-05-14T13:18:50;2.57;;;2.10;;
2257;SDS011;1136;51.574;7.706;2023-05-14T13:21:18;2.60;;;2.50;;
2257;SDS011;1136;51.574;7.706;2023-05-14T13:23:45;2.23;;;2.13;;
2257;SDS011;1136;51.574;7.706;2023-05-14T13:26:12;1.80;;;1.70;;
2257;SDS011;1136;51.574;7.706;2023-05-14T13:28:39;2.00;;;1.90;;
2257;SDS011;1136;51.574;7.706;2023-05-14T13:31:09;1.90;;;1.80;;
2257;SDS011;1136;51.574;7.706;2023-05-14T13:33:39;2.00;;;1.90;;
2257;SDS011;1136;51.574;7.706;2023-05-14T13:36:06;2.17;;;1.97;;
2257;SDS011;1136;51.574;7.706;2023-05-14T13:38:34;2.30;;;2.13;;
2257;SDS011;1136;51.574;7.706;2023-05-14T13:41:01;2.37;;;2.27;;
2257;SDS011;1136;51.574;7.706;2023-05-14T13:43:28;1.67;;;1.57;;
2257;SDS011;1136;51.574;7.706;2023-05-14T13:45:56;1.87;;;1.77;;
2257;SDS011;1136;51.574;7.706;2023-05-14T13:48:23;2.30;;;2.20;;
2257;SDS011;1136;51.574;7.706;2023-05-14T13:50:50;2.90;;;2.70;;
2257;SDS011;1136;51.574;7.706;2023-05-14T13:53:21;2.47;;;2.37;;
2257;SDS011;1136;51.574;7.706;2023-05-14T13:55:48;2.80;;;1.80;;
2257;SDS011;1136;51.574;7.706;2023-05-14T13:58:15;2.00;;;1.90;;
2257;SDS011;1136;51.574;7.706;2023-05-14T14:00:42;2.67;;;2.57;;
2257;SDS011;1136;51.574;7.706;2023-05-14T14:03:08;2.20;;;2.10;;
2257;SDS011;1136;51.574;7.706;2023-05-14T14:05:35;2.20;;;2.10;;
2257;SDS011;1136;51.574;7.706;2023-05-14T14:08:02;2.03;;;1.80;;
2257;SDS011;1136;51.574;7.706;2023-05-14T14:10:47;2.87;;;2.03;;
2257;SDS011;1136;51.574;7.706;2023-05-14T14:13:13;2.20;;;2.10;;
2257;SDS011;1136;51.574;7.706;2023-05-14T14:15:40;2.53;;;2.43;;
2257;SDS011;1136;51.574;7.706;2023-05-14T14:18:07;1.97;;;1.87;;
2257;SDS011;1136;51.574;7.706;2023-05-14T14:20:34;2.40;;;2.30;;
2257;SDS011;1136;51.574;7.706;2023-05-14T14:23:01;2.23;;;2.13;;
2257;SDS011;1136;51.574;7.706;2023-05-14T14:25:28;2.40;;;2.13;;
2257;SDS011;1136;51.574;7.706;2023-05-14T14:27:54;1.50;;;1.40;;
2257;SDS011;1136;51.574;7.706;2023-05-14T14:30:21;2.10;;;1.93;;
2257;SDS011;1136;51.574;7.706;2023-05-14T14:32:48;2.33;;;2.03;;
2257;SDS011;1136;51.574;7.706;2023-05-14T14:35:15;3.33;;;2.30;;
2257;SDS011;1136;51.574;7.706;2023-05-14T14:37:43;2.43;;;2.20;;
2257;SDS011;1136;51.574;7.706;2023-05-14T14:40:14;3.63;;;1.97;;
2257;SDS011;1136;51.574;7.706;2023-05-14T14:42:42;1.80;;;1.70;;
2257;SDS011;1136;51.574;7.706;2023-05-14T14:45:08;2.10;;;1.90;;
2257;SDS011;1136;51.574;7.706;2023-05-14T14:47:36;2.10;;;2.00;;
2257;SDS011;1136;51.574;7.706;2023-05-14T14:50:02;6.03;;;4.67;;
2257;SDS011;1136;51.574;7.706;2023-05-14T14:52:30;2.40;;;2.30;;
2257;SDS011;1136;51.574;7.706;2023-05-14T14:54:57;4.70;;;2.50;;
2257;SDS011;1136;51.574;7.706;2023-05-14T14:57:24;2.20;;;2.10;;
2257;SDS011;1136;51.574;7.706;2023-05-14T14:59:52;2.60;;;2.47;;
2257;SDS011;1136;51.574;7.706;2023-05-14T15:02:18;2.33;;;2.23;;
2257;SDS011;1136;51.574;7.706;2023-05-14T15:04:45;2.37;;;2.27;;
2257;SDS011;1136;51.574;7.706;2023-05-14T15:07:12;1.80;;;1.70;;
2257;SDS011;1136;51.574;7.706;2023-05-14T15:09:41;2.37;;;2.27;;
2257;SDS011;1136;51.574;7.706;2023-05-14T15:12:08;2.30;;;2.20;;
2257;SDS011;1136;51.574;7.706;2023-05-14T15:14:36;2.50;;;2.40;;
2257;SDS011;1136;51.574;7.706;2023-05-14T15:17:03;2.60;;;2.40;;
2257;SDS011;1136;51.574;7.706;2023-05-14T15:19:29;2.27;;;2.07;;
2257;SDS011;1136;51.574;7.706;2023-05-14T15:21:57;2.27;;;2.17;;
2257;SDS011;1136;51.574;7.706;2023-05-14T15:24:24;2.27;;;2.17;;
2257;SDS011;1136;51.574;7.706;2023-05-14T15:26:51;2.20;;;2.10;;